VIR11 EGLL-KBOS
Flight info
| Callsign | VIR11 |
|---|---|
| Flight time | N/A |
| Altitude | 38000 |
| Route | CPT DCT DIDZA L9 OKSAW DCT BIBPE DCT BUCGO DCT FELCA DCT OFSOX DCT SLANY DCT MALOT/M082F380 DCT 54N020W 54N030W 54N040W 53N050W DCT RIKAL/N0478F380 N572A TOPPS DCT AJJAY OOSHN5 |
| Aircraft | A343/H-SDE2E3FGHIJ4J5M1RWXY/LB1D1 |
Departure
| Time | 2026-05-03 22:04 |
|---|---|
| Airport | London Heathrow Airport (EGLL) |
Arrival
| Time | N/A |
|---|---|
| Airport | Boston Logan International Airport (KBOS) |
| Time | Latitude | Longitude | Altitude | Speed | Heading |
|---|---|---|---|---|---|
| 2026-05-03 21:33 | 51.47214 | -0.46248 | 94 ft | 0 kts | 56° |
| 2026-05-03 21:50 | 51.47207 | -0.46266 | 94 ft | 3 kts | 56° |
| 2026-05-03 21:50 | 51.47203 | -0.46274 | 94 ft | 3 kts | 56° |
| 2026-05-03 21:50 | 51.47194 | -0.46297 | 93 ft | 3 kts | 56° |
| 2026-05-03 21:51 | 51.47187 | -0.46312 | 93 ft | 2 kts | 54° |
| 2026-05-03 21:51 | 51.47177 | -0.46332 | 92 ft | 3 kts | 27° |
| 2026-05-03 21:51 | 51.47162 | -0.46337 | 92 ft | 3 kts | 336° |
| 2026-05-03 21:51 | 51.47145 | -0.46321 | 93 ft | 3 kts | 324° |
| 2026-05-03 21:52 | 51.47137 | -0.46312 | 93 ft | 1 kts | 326° |
| 2026-05-03 21:52 | 51.47136 | -0.46311 | 93 ft | 0 kts | 326° |
| 2026-05-03 21:54 | 51.47140 | -0.46315 | 90 ft | 0 kts | 326° |
| 2026-05-03 21:55 | 51.47159 | -0.46335 | 94 ft | 10 kts | 326° |
| 2026-05-03 21:55 | 51.47219 | -0.46411 | 95 ft | 13 kts | 309° |
| 2026-05-03 21:55 | 51.47237 | -0.46575 | 93 ft | 4 kts | 270° |
| 2026-05-03 21:55 | 51.47237 | -0.46583 | 90 ft | 0 kts | 271° |
| 2026-05-03 21:56 | 51.47237 | -0.46585 | 90 ft | 0 kts | 271° |
| 2026-05-03 21:57 | 51.47228 | -0.46671 | 93 ft | 10 kts | 246° |
| 2026-05-03 21:57 | 51.47205 | -0.46709 | 94 ft | 6 kts | 215° |
| 2026-05-03 21:57 | 51.47150 | -0.46725 | 91 ft | 15 kts | 181° |
| 2026-05-03 21:57 | 51.46995 | -0.46657 | 93 ft | 31 kts | 152° |
| 2026-05-03 21:58 | 51.46816 | -0.46468 | 94 ft | 24 kts | 144° |
| 2026-05-03 21:58 | 51.46774 | -0.46416 | 94 ft | 0 kts | 135° |
| 2026-05-03 21:58 | 51.46771 | -0.46410 | 94 ft | 5 kts | 134° |
| 2026-05-03 21:58 | 51.46743 | -0.46313 | 93 ft | 8 kts | 98° |
| 2026-05-03 21:59 | 51.46746 | -0.46144 | 93 ft | 25 kts | 88° |
| 2026-05-03 21:59 | 51.46751 | -0.45810 | 90 ft | 24 kts | 85° |
| 2026-05-03 21:59 | 51.46753 | -0.45781 | 91 ft | 1 kts | 85° |
| 2026-05-03 21:59 | 51.46752 | -0.45650 | 90 ft | 22 kts | 91° |
| 2026-05-03 22:00 | 51.46750 | -0.45404 | 92 ft | 22 kts | 89° |
| 2026-05-03 22:00 | 51.46752 | -0.45190 | 90 ft | 19 kts | 90° |
| 2026-05-03 22:00 | 51.46751 | -0.45002 | 90 ft | 10 kts | 91° |
| 2026-05-03 22:00 | 51.46752 | -0.44866 | 90 ft | 19 kts | 89° |
| 2026-05-03 22:01 | 51.46752 | -0.44560 | 90 ft | 33 kts | 90° |
| 2026-05-03 22:01 | 51.46755 | -0.44173 | 93 ft | 36 kts | 87° |
| 2026-05-03 22:01 | 51.46772 | -0.43787 | 93 ft | 25 kts | 88° |
| 2026-05-03 22:01 | 51.46772 | -0.43603 | 94 ft | 18 kts | 91° |
| 2026-05-03 22:02 | 51.46705 | -0.43447 | 93 ft | 17 kts | 161° |
| 2026-05-03 22:02 | 51.46636 | -0.43441 | 90 ft | 18 kts | 179° |
| 2026-05-03 22:02 | 51.46626 | -0.43441 | 92 ft | 18 kts | 179° |
| 2026-05-03 22:02 | 51.46540 | -0.43452 | 92 ft | 11 kts | 200° |
| 2026-05-03 22:03 | 51.46499 | -0.43543 | 92 ft | 10 kts | 256° |
| 2026-05-03 22:03 | 51.46495 | -0.43700 | 90 ft | 31 kts | 269° |
| 2026-05-03 22:03 | 51.46492 | -0.44345 | 91 ft | 82 kts | 270° |
| 2026-05-03 22:03 | 51.46490 | -0.45485 | 90 ft | 124 kts | 270° |
| 2026-05-03 22:04 | 51.46487 | -0.47063 | 98 ft | 158 kts | 270° |
| 2026-05-03 22:04 | 51.46492 | -0.48900 | 431 ft | 164 kts | 270° |
| 2026-05-03 22:04 | 51.46520 | -0.50650 | 910 ft | 165 kts | 271° |
| 2026-05-03 22:04 | 51.46511 | -0.52649 | 988 ft | 195 kts | 268° |
| 2026-05-03 22:05 | 51.46468 | -0.54999 | 1004 ft | 228 kts | 268° |
| 2026-05-03 22:05 | 51.46433 | -0.57650 | 1421 ft | 243 kts | 269° |
| 2026-05-03 22:05 | 51.46400 | -0.60318 | 2123 ft | 247 kts | 268° |
| 2026-05-03 22:05 | 51.46165 | -0.63086 | 2733 ft | 254 kts | 259° |
| 2026-05-03 22:06 | 51.45912 | -0.65732 | 3322 ft | 258 kts | 264° |
| 2026-05-03 22:06 | 51.45777 | -0.68633 | 3994 ft | 261 kts | 266° |
| 2026-05-03 22:06 | 51.45675 | -0.71550 | 4686 ft | 264 kts | 266° |
| 2026-05-03 22:06 | 51.45577 | -0.74506 | 5382 ft | 265 kts | 266° |
| 2026-05-03 22:07 | 51.45487 | -0.77471 | 6098 ft | 267 kts | 266° |
| 2026-05-03 22:07 | 51.45426 | -0.80389 | 6783 ft | 268 kts | 267° |
| 2026-05-03 22:07 | 51.45368 | -0.83394 | 7443 ft | 271 kts | 266° |
| 2026-05-03 22:07 | 51.45309 | -0.86435 | 8118 ft | 274 kts | 267° |
| 2026-05-03 22:08 | 51.45455 | -0.89490 | 8805 ft | 278 kts | 277° |
| 2026-05-03 22:08 | 51.45794 | -0.92558 | 9492 ft | 281 kts | 279° |
| 2026-05-03 22:08 | 51.46160 | -0.95647 | 10147 ft | 284 kts | 278° |
| 2026-05-03 22:08 | 51.46527 | -0.98781 | 10765 ft | 287 kts | 278° |
| 2026-05-03 22:09 | 51.46890 | -1.01913 | 11298 ft | 294 kts | 278° |
| 2026-05-03 22:09 | 51.47269 | -1.05178 | 11335 ft | 295 kts | 278° |
| 2026-05-03 22:09 | 51.47628 | -1.08344 | 10811 ft | 303 kts | 278° |
| 2026-05-03 22:10 | 51.49048 | -1.14768 | 10553 ft | 323 kts | 296° |
| 2026-05-03 22:10 | 51.50177 | -1.17986 | 10505 ft | 335 kts | 299° |
| 2026-05-03 22:10 | 51.51405 | -1.21141 | 10353 ft | 339 kts | 301° |
| 2026-05-03 22:10 | 51.52712 | -1.24341 | 10342 ft | 336 kts | 302° |
| 2026-05-03 22:11 | 51.54009 | -1.27469 | 10560 ft | 341 kts | 302° |
| 2026-05-03 22:11 | 51.55330 | -1.30675 | 10778 ft | 346 kts | 301° |
| 2026-05-03 22:11 | 51.56654 | -1.33923 | 11047 ft | 350 kts | 301° |
| 2026-05-03 22:11 | 51.57988 | -1.37228 | 11342 ft | 353 kts | 301° |
| 2026-05-03 22:12 | 51.59300 | -1.40502 | 11658 ft | 354 kts | 301° |
| 2026-05-03 22:12 | 51.60638 | -1.43855 | 11960 ft | 356 kts | 300° |
| 2026-05-03 22:12 | 51.61980 | -1.47228 | 12278 ft | 358 kts | 301° |
| 2026-05-03 22:12 | 51.63322 | -1.50607 | 12585 ft | 359 kts | 301° |
| 2026-05-03 22:13 | 51.64672 | -1.54011 | 12849 ft | 362 kts | 300° |
| 2026-05-03 22:13 | 51.66026 | -1.57423 | 12838 ft | 360 kts | 300° |
| 2026-05-03 22:13 | 51.67365 | -1.60803 | 13037 ft | 366 kts | 300° |
| 2026-05-03 22:13 | 51.68759 | -1.64336 | 13301 ft | 379 kts | 300° |
| 2026-05-03 22:14 | 51.69946 | -1.68156 | 13775 ft | 383 kts | 288° |
| 2026-05-03 22:14 | 51.70629 | -1.72304 | 14298 ft | 384 kts | 279° |
| 2026-05-03 22:14 | 51.71090 | -1.76565 | 14855 ft | 387 kts | 276° |
| 2026-05-03 22:14 | 51.71438 | -1.80889 | 15397 ft | 390 kts | 274° |
| 2026-05-03 22:15 | 51.71733 | -1.85251 | 15942 ft | 393 kts | 274° |
| 2026-05-03 22:15 | 51.72015 | -1.89607 | 16481 ft | 396 kts | 274° |
| 2026-05-03 22:15 | 51.72301 | -1.94039 | 17061 ft | 399 kts | 274° |
| 2026-05-03 22:15 | 51.72597 | -1.98524 | 17569 ft | 403 kts | 274° |
| 2026-05-03 22:16 | 51.72904 | -2.03050 | 18119 ft | 406 kts | 274° |
| 2026-05-03 22:16 | 51.73217 | -2.07588 | 18619 ft | 409 kts | 274° |
| 2026-05-03 22:16 | 51.73536 | -2.12153 | 19131 ft | 410 kts | 274° |
| 2026-05-03 22:16 | 51.73855 | -2.16732 | 19638 ft | 412 kts | 274° |
| 2026-05-03 22:17 | 51.74176 | -2.21350 | 20156 ft | 414 kts | 274° |
| 2026-05-03 22:17 | 51.74494 | -2.25975 | 20657 ft | 416 kts | 274° |
| 2026-05-03 22:17 | 51.74809 | -2.30580 | 21138 ft | 418 kts | 273° |
| 2026-05-03 22:17 | 51.75127 | -2.35259 | 21622 ft | 420 kts | 273° |
| 2026-05-03 22:18 | 51.75444 | -2.39953 | 22084 ft | 422 kts | 273° |
| 2026-05-03 22:18 | 51.75761 | -2.44685 | 22521 ft | 425 kts | 273° |
| 2026-05-03 22:18 | 51.76080 | -2.49487 | 22857 ft | 430 kts | 273° |
| 2026-05-03 22:18 | 51.76393 | -2.54238 | 23302 ft | 432 kts | 273° |
| 2026-05-03 22:19 | 51.76643 | -2.58038 | 23619 ft | 433 kts | 273° |
| 2026-05-03 22:19 | 51.76961 | -2.62883 | 23979 ft | 435 kts | 273° |
| 2026-05-03 22:19 | 51.77279 | -2.67705 | 24285 ft | 438 kts | 273° |
| 2026-05-03 22:19 | 51.77595 | -2.72613 | 24606 ft | 441 kts | 273° |
| 2026-05-03 22:20 | 51.77910 | -2.77560 | 24863 ft | 445 kts | 274° |
| 2026-05-03 22:20 | 51.78227 | -2.82574 | 25068 ft | 450 kts | 274° |
| 2026-05-03 22:20 | 51.78544 | -2.87618 | 25407 ft | 452 kts | 274° |
| 2026-05-03 22:20 | 51.78863 | -2.92686 | 25754 ft | 454 kts | 274° |
| 2026-05-03 22:21 | 51.79181 | -2.97783 | 25978 ft | 458 kts | 274° |
| 2026-05-03 22:21 | 51.79499 | -3.02906 | 26281 ft | 460 kts | 274° |
| 2026-05-03 22:21 | 51.79816 | -3.08062 | 26608 ft | 461 kts | 274° |
| 2026-05-03 22:21 | 51.80132 | -3.13232 | 26900 ft | 463 kts | 274° |
| 2026-05-03 22:22 | 51.80447 | -3.18427 | 27187 ft | 465 kts | 274° |
| 2026-05-03 22:22 | 51.80760 | -3.23630 | 27479 ft | 467 kts | 274° |
| 2026-05-03 22:22 | 51.81073 | -3.28871 | 27764 ft | 469 kts | 273° |
| 2026-05-03 22:22 | 51.81384 | -3.34139 | 28037 ft | 471 kts | 273° |
| 2026-05-03 22:23 | 51.81690 | -3.39343 | 28312 ft | 472 kts | 273° |
| 2026-05-03 22:23 | 51.81999 | -3.44660 | 28537 ft | 475 kts | 274° |
| 2026-05-03 22:23 | 51.82309 | -3.50004 | 28773 ft | 477 kts | 274° |
| 2026-05-03 22:23 | 51.82784 | -3.55317 | 29144 ft | 478 kts | 279° |
| 2026-05-03 22:24 | 51.83412 | -3.60583 | 29555 ft | 476 kts | 279° |
| 2026-05-03 22:24 | 51.84072 | -3.65839 | 29926 ft | 476 kts | 280° |
| 2026-05-03 22:24 | 51.84745 | -3.71066 | 30237 ft | 475 kts | 280° |
| 2026-05-03 22:24 | 51.85425 | -3.76294 | 30527 ft | 474 kts | 280° |
| 2026-05-03 22:25 | 51.86094 | -3.81448 | 30794 ft | 474 kts | 280° |
| 2026-05-03 22:25 | 51.86767 | -3.86661 | 31061 ft | 473 kts | 280° |
| 2026-05-03 22:25 | 51.87437 | -3.91893 | 31319 ft | 473 kts | 280° |
| 2026-05-03 22:25 | 51.88106 | -3.97153 | 31482 ft | 475 kts | 280° |
| 2026-05-03 22:26 | 51.88761 | -4.02332 | 31724 ft | 475 kts | 280° |
| 2026-05-03 22:26 | 51.89422 | -4.07575 | 32031 ft | 474 kts | 280° |
| 2026-05-03 22:26 | 51.90078 | -4.12805 | 32304 ft | 474 kts | 279° |
| 2026-05-03 22:26 | 51.90733 | -4.18040 | 32534 ft | 473 kts | 279° |
| 2026-05-03 22:27 | 51.91386 | -4.23281 | 32808 ft | 473 kts | 279° |
| 2026-05-03 22:27 | 51.92034 | -4.28503 | 33055 ft | 472 kts | 279° |
| 2026-05-03 22:27 | 51.92680 | -4.33729 | 33305 ft | 472 kts | 279° |
| 2026-05-03 22:27 | 51.93323 | -4.38954 | 33546 ft | 472 kts | 279° |
| 2026-05-03 22:28 | 51.93954 | -4.44098 | 33730 ft | 473 kts | 279° |
| 2026-05-03 22:28 | 51.94592 | -4.49325 | 33919 ft | 473 kts | 279° |
| 2026-05-03 22:28 | 51.95230 | -4.54569 | 34109 ft | 473 kts | 279° |
| 2026-05-03 22:28 | 51.95865 | -4.59803 | 34292 ft | 472 kts | 280° |
| 2026-05-03 22:29 | 51.96498 | -4.65047 | 34494 ft | 472 kts | 280° |
| 2026-05-03 22:29 | 51.97127 | -4.70272 | 34669 ft | 471 kts | 280° |
| 2026-05-03 22:29 | 51.97752 | -4.75491 | 34830 ft | 472 kts | 280° |
| 2026-05-03 22:29 | 51.98369 | -4.80664 | 34979 ft | 472 kts | 280° |
| 2026-05-03 22:30 | 51.98990 | -4.85887 | 35143 ft | 472 kts | 280° |
| 2026-05-03 22:30 | 51.99609 | -4.91117 | 35316 ft | 472 kts | 281° |
| 2026-05-03 22:30 | 52.00229 | -4.96374 | 35298 ft | 476 kts | 280° |
| 2026-05-03 22:31 | 52.01469 | -5.06949 | 35588 ft | 476 kts | 280° |
| 2026-05-03 22:31 | 52.02083 | -5.12222 | 35778 ft | 475 kts | 280° |
| 2026-05-03 22:31 | 52.02715 | -5.17477 | 35925 ft | 475 kts | 283° |
| 2026-05-03 22:31 | 52.03605 | -5.22650 | 36045 ft | 475 kts | 287° |
| 2026-05-03 22:32 | 52.04590 | -5.27774 | 36181 ft | 476 kts | 287° |
| 2026-05-03 22:32 | 52.05608 | -5.32891 | 36301 ft | 476 kts | 288° |
| 2026-05-03 22:32 | 52.06640 | -5.37997 | 36451 ft | 475 kts | 288° |
| 2026-05-03 22:32 | 52.07664 | -5.43042 | 36583 ft | 475 kts | 288° |
| 2026-05-03 22:33 | 52.08697 | -5.48147 | 36717 ft | 475 kts | 288° |
| 2026-05-03 22:33 | 52.09729 | -5.53272 | 36867 ft | 475 kts | 288° |
| 2026-05-03 22:33 | 52.10754 | -5.58388 | 36984 ft | 475 kts | 288° |
| 2026-05-03 22:33 | 52.11775 | -5.63509 | 37097 ft | 475 kts | 288° |
| 2026-05-03 22:34 | 52.12793 | -5.68633 | 37223 ft | 475 kts | 288° |
| 2026-05-03 22:34 | 52.13806 | -5.73754 | 37335 ft | 475 kts | 288° |
| 2026-05-03 22:34 | 52.14804 | -5.78808 | 37457 ft | 475 kts | 288° |
| 2026-05-03 22:35 | 52.16512 | -5.89210 | 37648 ft | 476 kts | 283° |
| 2026-05-03 22:35 | 52.17236 | -5.94475 | 37750 ft | 476 kts | 283° |
| 2026-05-03 22:35 | 52.17939 | -5.99755 | 37800 ft | 477 kts | 282° |
| 2026-05-03 22:36 | 52.19317 | -6.10348 | 37996 ft | 477 kts | 282° |
| 2026-05-03 22:36 | 52.20000 | -6.15637 | 38142 ft | 476 kts | 282° |
| 2026-05-03 22:36 | 52.20683 | -6.20926 | 38253 ft | 476 kts | 282° |
| 2026-05-03 22:36 | 52.21363 | -6.26209 | 38368 ft | 476 kts | 282° |
| 2026-05-03 22:37 | 52.22042 | -6.31491 | 38444 ft | 476 kts | 282° |
| 2026-05-03 22:37 | 52.23398 | -6.42081 | 38616 ft | 476 kts | 282° |
| 2026-05-03 22:38 | 52.24737 | -6.52617 | 38702 ft | 478 kts | 282° |
| 2026-05-03 22:38 | 52.26077 | -6.63242 | 38834 ft | 478 kts | 282° |
| 2026-05-03 22:39 | 52.27408 | -6.73882 | 38941 ft | 478 kts | 282° |
| 2026-05-03 22:39 | 52.28734 | -6.84561 | 38986 ft | 480 kts | 282° |
| 2026-05-03 22:40 | 52.30052 | -6.95265 | 38973 ft | 480 kts | 282° |
| 2026-05-03 22:40 | 52.31356 | -7.05943 | 38971 ft | 479 kts | 282° |
| 2026-05-03 22:41 | 52.32652 | -7.16630 | 38986 ft | 479 kts | 282° |
| 2026-05-03 22:41 | 52.33932 | -7.27277 | 38988 ft | 479 kts | 282° |
| 2026-05-03 22:42 | 52.35207 | -7.37973 | 38988 ft | 479 kts | 281° |
| 2026-05-03 22:42 | 52.36469 | -7.48635 | 38991 ft | 479 kts | 282° |
| 2026-05-03 22:43 | 52.37729 | -7.59378 | 38998 ft | 480 kts | 282° |
| 2026-05-03 22:43 | 52.38981 | -7.70137 | 38986 ft | 480 kts | 281° |
| 2026-05-03 22:44 | 52.40215 | -7.80833 | 38987 ft | 480 kts | 281° |
| 2026-05-03 22:44 | 52.41447 | -7.91600 | 38989 ft | 480 kts | 281° |
| 2026-05-03 22:45 | 52.42668 | -8.02367 | 38986 ft | 481 kts | 281° |
| 2026-05-03 22:45 | 52.43676 | -8.11323 | 38986 ft | 481 kts | 281° |
| 2026-05-03 22:46 | 52.44881 | -8.22120 | 38997 ft | 482 kts | 281° |
| 2026-05-03 22:46 | 52.46077 | -8.32926 | 38991 ft | 481 kts | 281° |
| 2026-05-03 22:47 | 52.47264 | -8.43738 | 38980 ft | 481 kts | 281° |
| 2026-05-03 22:47 | 52.48430 | -8.54468 | 38995 ft | 480 kts | 281° |
| 2026-05-03 22:48 | 52.49595 | -8.65274 | 39002 ft | 480 kts | 281° |
| 2026-05-03 22:48 | 52.50750 | -8.76091 | 39007 ft | 481 kts | 281° |
| 2026-05-03 22:49 | 52.51895 | -8.86903 | 39011 ft | 481 kts | 281° |
| 2026-05-03 22:49 | 52.53030 | -8.97729 | 39013 ft | 479 kts | 281° |
| 2026-05-03 22:50 | 52.54151 | -9.08520 | 39014 ft | 479 kts | 281° |
| 2026-05-03 22:50 | 52.55261 | -9.19302 | 39011 ft | 479 kts | 281° |
| 2026-05-03 22:51 | 52.56356 | -9.30033 | 39011 ft | 479 kts | 281° |
| 2026-05-03 22:51 | 52.57446 | -9.40822 | 39007 ft | 479 kts | 281° |
| 2026-05-03 22:52 | 52.58528 | -9.51635 | 39016 ft | 479 kts | 281° |
| 2026-05-03 22:52 | 52.59602 | -9.62470 | 39015 ft | 479 kts | 281° |
| 2026-05-03 22:53 | 52.60666 | -9.73305 | 39018 ft | 479 kts | 281° |
| 2026-05-03 22:53 | 52.61718 | -9.84142 | 39017 ft | 479 kts | 281° |
| 2026-05-03 22:54 | 52.62755 | -9.94907 | 39024 ft | 479 kts | 281° |
| 2026-05-03 22:54 | 52.63779 | -10.05650 | 39026 ft | 479 kts | 281° |
| 2026-05-03 22:55 | 52.64802 | -10.16499 | 39032 ft | 479 kts | 281° |
| 2026-05-03 22:55 | 52.65818 | -10.27370 | 39033 ft | 480 kts | 281° |
| 2026-05-03 22:56 | 52.66825 | -10.38264 | 39032 ft | 480 kts | 281° |
| 2026-05-03 22:56 | 52.67812 | -10.49076 | 39039 ft | 480 kts | 282° |
| 2026-05-03 22:57 | 52.68800 | -10.59974 | 39043 ft | 480 kts | 280° |
| 2026-05-03 22:57 | 52.69774 | -10.70850 | 39046 ft | 480 kts | 281° |
| 2026-05-03 22:58 | 52.70734 | -10.81705 | 39046 ft | 480 kts | 281° |
| 2026-05-03 22:58 | 52.71694 | -10.92635 | 39056 ft | 480 kts | 280° |
| 2026-05-03 22:59 | 52.72638 | -11.03531 | 39055 ft | 480 kts | 281° |
| 2026-05-03 22:59 | 52.73573 | -11.14433 | 39060 ft | 480 kts | 280° |
| 2026-05-03 23:00 | 52.74489 | -11.25251 | 39068 ft | 479 kts | 281° |
| 2026-05-03 23:00 | 52.75405 | -11.36170 | 39073 ft | 479 kts | 281° |
| 2026-05-03 23:01 | 52.76309 | -11.47088 | 39075 ft | 479 kts | 280° |
| 2026-05-03 23:01 | 52.76421 | -11.48450 | 39075 ft | 479 kts | 280° |